Time;durP1;ratioP1;P1;durP2;ratioP2;P2;SDS_P1;SDS_P2;PMS_P1;PMS_P2;Temp;Humidity;BMP_temperature;BMP_pressure;BME280_temperature;BME280_humidity;BME280_pressure;Samples;Min_cycle;Max_cycle;Signal;HPM_P1;HPM_P2
2023/08/02 00:01:48;;;;;;;;;;;;;;;18.42;100.00;99060.28;5071580;28;892;-67
2023/08/02 00:04:14;;;;;;;;;;;;;;;18.43;100.00;99056.22;5071809;28;927;-67
2023/08/02 00:06:41;;;;;;;;;;;;;;;18.55;100.00;99055.22;5071858;28;770;-67
2023/08/02 00:09:07;;;;;;;;;;;;;;;18.57;100.00;99057.56;5071523;28;1890;-67
2023/08/02 00:11:34;;;;;;;;;;;;;;;18.50;100.00;99055.88;5074087;28;823;-67
2023/08/02 00:14:01;;;;;;;;;;;;;;;18.48;100.00;99047.19;5075576;28;822;-67
2023/08/02 00:16:28;;;;;;;;;;;;;;;18.49;100.00;99048.72;5075518;28;846;-67
2023/08/02 00:18:54;;;;;;;;;;;;;;;18.48;100.00;99043.63;5075346;28;956;-67
2023/08/02 00:21:21;;;;;;;;;;;;;;;18.45;100.00;99047.34;5075473;28;932;-67
2023/08/02 00:23:48;;;;;;;;;;;;;;;18.43;100.00;99056.22;5073967;28;831;-67
2023/08/02 00:26:15;;;;;;;;;;;;;;;18.37;100.00;99046.94;5075364;28;853;-67
2023/08/02 00:28:41;;;;;;;;;;;;;;;18.30;100.00;99052.88;5075209;28;1890;-67
2023/08/02 00:31:08;;;;;;;;;;;;;;;18.21;100.00;99055.72;5073874;28;1291;-67
2023/08/02 00:33:35;;;;;;;;;;;;;;;18.15;100.00;99059.16;5075054;28;806;-67
2023/08/02 00:36:02;;;;;;;;;;;;;;;18.16;100.00;99049.53;5075070;28;824;-67
2023/08/02 00:38:31;;;;;;;;;;;;;;;18.14;100.00;99054.03;5075101;28;802;-67
2023/08/02 00:41:07;;;;;;;;;;;;;;;18.12;100.00;99057.31;5075089;28;862;-67
2023/08/02 00:43:40;;;;;;;;;;;;;;;18.13;100.00;99052.47;5074926;28;919;-67
2023/08/02 00:46:12;;;;;;;;;;;;;;;18.13;100.00;99050.44;5075087;28;900;-67
2023/08/02 00:48:39;;;;;;;;;;;;;;;18.12;100.00;99039.75;5074685;28;1906;-67
2023/08/02 00:51:15;;;;;;;;;;;;;;;18.05;100.00;99048.47;5074815;28;869;-67
2023/08/02 00:53:45;;;;;;;;;;;;;;;17.95;100.00;99040.13;5074837;28;868;-67
2023/08/02 00:56:14;;;;;;;;;;;;;;;17.91;100.00;99039.53;5074785;28;893;-67
2023/08/02 00:58:41;;;;;;;;;;;;;;;17.91;100.00;99039.53;5056666;28;1334;-67
2023/08/02 01:01:08;;;;;;;;;;;;;;;17.92;100.00;99043.88;5074933;28;822;-67
2023/08/02 01:03:35;;;;;;;;;;;;;;;17.98;100.00;99040.44;5074504;28;877;-66
2023/08/02 01:06:23;;;;;;;;;;;;;;;18.06;100.00;99038.84;5074520;28;790;-67
2023/08/02 01:08:56;;;;;;;;;;;;;;;18.09;100.00;99043.47;5066931;28;1889;-66
2023/08/02 01:11:27;;;;;;;;;;;;;;;18.06;100.00;99050.81;5074520;28;814;-66
2023/08/02 01:13:55;;;;;;;;;;;;;;;18.09;100.00;99037.91;5056356;28;1377;-66
2023/08/02 01:16:23;;;;;;;;;;;;;;;18.11;100.00;99044.56;5074367;28;885;-66
2023/08/02 01:18:50;;;;;;;;;;;;;;;18.07;100.00;99041.19;5074372;28;861;-66
2023/08/02 01:21:17;;;;;;;;;;;;;;;18.07;100.00;99034.78;5074133;28;830;-66
2023/08/02 01:23:44;;;;;;;;;;;;;;;18.09;100.00;99030.31;5074221;28;885;-66
2023/08/02 01:26:11;;;;;;;;;;;;;;;18.09;100.00;99027.50;5074164;28;889;-67
2023/08/02 01:28:40;;;;;;;;;;;;;;;18.04;100.00;99025.34;5056173;28;1953;-66
2023/08/02 01:31:09;;;;;;;;;;;;;;;17.98;100.00;99027.22;5074271;28;859;-66
2023/08/02 01:33:43;;;;;;;;;;;;;;;17.93;100.00;99034.22;5074065;28;806;-66
2023/08/02 01:36:10;;;;;;;;;;;;;;;17.98;100.00;99023.66;5073999;28;889;-66
2023/08/02 01:38:37;;;;;;;;;;;;;;;18.03;100.00;99026.59;5073958;28;904;-66
2023/08/02 01:41:03;;;;;;;;;;;;;;;18.06;100.00;99019.28;5074051;28;854;-66
2023/08/02 01:43:30;;;;;;;;;;;;;;;18.06;100.00;99028.44;5073893;28;849;-66
2023/08/02 01:45:57;;;;;;;;;;;;;;;18.08;100.00;99030.75;5073723;28;912;-66
2023/08/02 01:48:25;;;;;;;;;;;;;;;18.08;100.00;99025.19;5073698;28;1969;-66
2023/08/02 01:50:53;;;;;;;;;;;;;;;18.11;100.00;99024.97;5073685;28;875;-64
2023/08/02 01:53:20;;;;;;;;;;;;;;;18.13;100.00;99028.09;5073579;28;1235;-64
2023/08/02 01:55:46;;;;;;;;;;;;;;;18.13;100.00;99016.13;5073616;28;1215;-64
2023/08/02 01:58:13;;;;;;;;;;;;;;;18.16;100.00;99023.59;5073441;28;1011;-64
2023/08/02 02:00:39;;;;;;;;;;;;;;;18.15;100.00;99025.59;5073545;28;818;-64
2023/08/02 02:03:05;;;;;;;;;;;;;;;18.16;100.00;99029.94;5073391;28;881;-64
2023/08/02 02:05:30;;;;;;;;;;;;;;;18.12;100.00;99023.75;5073449;28;880;-64
2023/08/02 02:07:57;;;;;;;;;;;;;;;18.05;100.00;99034.50;5073253;28;1890;-64
2023/08/02 02:10:24;;;;;;;;;;;;;;;17.92;100.00;99029.09;5073395;28;819;-64
2023/08/02 02:12:51;;;;;;;;;;;;;;;17.74;100.00;99035.50;5073211;28;939;-64
2023/08/02 02:15:18;;;;;;;;;;;;;;;17.60;100.00;99041.75;5073175;28;847;-64
2023/08/02 02:17:45;;;;;;;;;;;;;;;17.67;100.00;99042.22;5073125;28;858;-64
2023/08/02 02:20:12;;;;;;;;;;;;;;;17.82;100.00;99042.34;5073110;28;912;-64
2023/08/02 02:22:39;;;;;;;;;;;;;;;17.95;100.00;99044.94;5073043;28;922;-64
2023/08/02 02:25:06;;;;;;;;;;;;;;;18.04;100.00;99044.13;5073309;28;894;-64
2023/08/02 02:27:33;;;;;;;;;;;;;;;18.09;100.00;99047.06;5073038;28;815;-64
2023/08/02 02:30:00;;;;;;;;;;;;;;;18.14;100.00;99048.44;5072796;28;1882;-64
2023/08/02 02:32:26;;;;;;;;;;;;;;;18.14;100.00;99045.66;5072924;28;861;-64
2023/08/02 02:34:53;;;;;;;;;;;;;;;18.13;100.00;99039.25;5072242;28;843;-64
2023/08/02 02:37:21;;;;;;;;;;;;;;;18.11;100.00;99041.00;5072848;28;872;-64
2023/08/02 02:39:47;;;;;;;;;;;;;;;18.08;100.00;99042.72;5072690;28;862;-64
2023/08/02 02:42:14;;;;;;;;;;;;;;;18.06;100.00;99044.44;5072699;28;905;-64
2023/08/02 02:44:42;;;;;;;;;;;;;;;17.98;100.00;99044.00;5072786;28;817;-64
2023/08/02 02:47:09;;;;;;;;;;;;;;;17.83;100.00;99041.09;5072805;28;917;-64
2023/08/02 02:49:35;;;;;;;;;;;;;;;17.69;100.00;99042.53;5072352;28;1989;-64
2023/08/02 02:52:03;;;;;;;;;;;;;;;17.54;100.00;99050.00;5072544;28;829;-64
2023/08/02 02:54:29;;;;;;;;;;;;;;;17.42;100.00;99048.16;5072543;28;849;-64
2023/08/02 02:56:56;;;;;;;;;;;;;;;17.35;100.00;99043.66;5072344;28;887;-64
2023/08/02 02:59:23;;;;;;;;;;;;;;;17.28;100.00;99050.34;5072334;28;896;-64
2023/08/02 03:01:50;;;;;;;;;;;;;;;17.29;100.00;99053.91;5072337;28;870;-64
2023/08/02 03:04:17;;;;;;;;;;;;;;;17.26;100.00;99049.25;5072320;28;846;-64
2023/08/02 03:06:43;;;;;;;;;;;;;;;17.25;100.00;99053.28;5072265;28;877;-64
2023/08/02 03:09:10;;;;;;;;;;;;;;;17.27;100.00;99056.41;5072129;28;1959;-63
2023/08/02 03:11:37;;;;;;;;;;;;;;;17.31;100.00;99057.78;5072209;28;807;-63
2023/08/02 03:14:04;;;;;;;;;;;;;;;17.35;100.00;99058.41;5072133;28;849;-63
2023/08/02 03:16:32;;;;;;;;;;;;;;;17.44;100.00;99062.44;5072172;28;826;-63
2023/08/02 03:18:59;;;;;;;;;;;;;;;17.54;100.00;99058.38;5072077;28;822;-64
2023/08/02 03:21:26;;;;;;;;;;;;;;;17.67;100.00;99056.19;5072057;28;810;-63
2023/08/02 03:23:53;;;;;;;;;;;;;;;17.78;100.00;99066.88;5071999;28;844;-63
2023/08/02 03:26:19;;;;;;;;;;;;;;;17.85;100.00;99063.75;5071963;28;867;-63
2023/08/02 03:28:46;;;;;;;;;;;;;;;17.92;100.00;99059.84;5071897;28;1959;-63
2023/08/02 03:31:13;;;;;;;;;;;;;;;17.94;100.00;99055.38;5072240;28;877;-64
2023/08/02 03:33:41;;;;;;;;;;;;;;;17.94;100.00;99060.16;5071859;28;822;-63
2023/08/02 03:36:08;;;;;;;;;;;;;;;17.92;100.00;99054.25;5071877;28;881;-64
2023/08/02 03:38:35;;;;;;;;;;;;;;;17.96;100.00;99057.66;5071861;28;912;-64
2023/08/02 03:41:02;;;;;;;;;;;;;;;18.04;100.00;99060.91;5071826;28;803;-64
2023/08/02 03:43:29;;;;;;;;;;;;;;;18.20;100.00;99052.16;5072147;28;893;-64
2023/08/02 03:45:56;;;;;;;;;;;;;;;18.33;100.00;99044.31;5070788;28;835;-64
2023/08/02 03:48:25;;;;;;;;;;;;;;;18.42;100.00;99051.13;5071699;28;2055;-63
2023/08/02 03:53:54;;;;;;;;;;;;;;;18.62;100.00;99045.69;5071086;28;601;-63
2023/08/02 03:56:22;;;;;;;;;;;;;;;18.80;100.00;99055.25;5071916;28;853;-63
2023/08/02 03:58:49;;;;;;;;;;;;;;;18.94;100.00;99048.94;5053701;28;1507;-63
2023/08/02 04:01:16;;;;;;;;;;;;;;;19.07;100.00;99049.44;5071648;28;799;-63
2023/08/02 04:03:43;;;;;;;;;;;;;;;19.22;100.00;99045.91;5053700;28;1157;-63
2023/08/02 04:06:10;;;;;;;;;;;;;;;19.36;100.00;99043.13;5071640;28;889;-64
2023/08/02 04:08:37;;;;;;;;;;;;;;;19.50;100.00;99047.22;5071361;28;1913;-64
2023/08/02 04:11:04;;;;;;;;;;;;;;;19.71;100.00;99050.13;5071531;28;853;-63
2023/08/02 04:13:32;;;;;;;;;;;;;;;19.94;100.00;99054.06;5071820;28;791;-64
2023/08/02 04:15:58;;;;;;;;;;;;;;;20.15;100.00;99054.91;5071563;28;980;-64
2023/08/02 04:18:25;;;;;;;;;;;;;;;20.30;100.00;99044.44;5071454;28;826;-64
2023/08/02 04:20:52;;;;;;;;;;;;;;;20.45;100.00;99055.63;5071541;28;810;-64
2023/08/02 04:23:18;;;;;;;;;;;;;;;20.57;100.00;99051.75;5071337;28;884;-64
2023/08/02 04:25:46;;;;;;;;;;;;;;;20.69;100.00;99049.84;5071514;28;878;-64
2023/08/02 04:28:12;;;;;;;;;;;;;;;20.81;100.00;99047.97;5071268;28;1959;-64
2023/08/02 04:30:39;;;;;;;;;;;;;;;21.05;100.00;99049.78;5071436;28;861;-64
2023/08/02 04:33:06;;;;;;;;;;;;;;;21.21;100.00;99049.19;5071469;28;1053;-65
2023/08/02 04:35:33;;;;;;;;;;;;;;;21.26;100.00;99051.28;5071581;28;876;-64
2023/08/02 04:38:00;;;;;;;;;;;;;;;21.27;100.00;99052.06;5071663;28;869;-64
2023/08/02 04:40:27;;;;;;;;;;;;;;;21.19;100.00;99046.13;5071235;28;815;-64
2023/08/02 04:42:54;;;;;;;;;;;;;;;21.24;100.00;99044.63;5071333;28;814;-64
2023/08/02 04:45:21;;;;;;;;;;;;;;;21.40;100.00;99044.81;5071186;28;850;-64
2023/08/02 04:47:48;;;;;;;;;;;;;;;21.75;100.00;99045.91;5071298;28;1984;-65
2023/08/02 04:50:15;;;;;;;;;;;;;;;22.15;100.00;99047.78;5071164;28;826;-64
2023/08/02 04:52:42;;;;;;;;;;;;;;;22.53;100.00;99044.94;5071191;28;880;-64
2023/08/02 04:55:09;;;;;;;;;;;;;;;22.69;100.00;99047.09;5071189;28;818;-65
2023/08/02 04:57:36;;;;;;;;;;;;;;;22.94;100.00;99053.09;5073343;28;881;-64
2023/08/02 05:00:04;;;;;;;;;;;;;;;22.89;100.00;99053.84;5074608;28;877;-64
2023/08/02 05:02:36;;;;;;;;;;;;;;;22.81;100.00;99048.69;5074692;28;846;-64
2023/08/02 05:05:06;;;;;;;;;;;;;;;22.73;100.00;99049.69;5074547;28;818;-64
2023/08/02 05:07:33;;;;;;;;;;;;;;;22.66;100.00;99050.13;5074525;28;823;-64
2023/08/02 05:10:03;;;;;;;;;;;;;;;22.72;100.00;99050.94;5074505;28;1957;-64
2023/08/02 05:12:38;;;;;;;;;;;;;;;22.76;100.00;99055.06;5074459;28;871;-64
2023/08/02 05:15:06;;;;;;;;;;;;;;;22.77;100.00;99055.84;5074447;28;810;-64
2023/08/02 05:17:32;;;;;;;;;;;;;;;22.82;100.00;99055.09;5074414;28;818;-64
2023/08/02 05:19:59;;;;;;;;;;;;;;;22.97;100.00;99057.72;5074723;28;850;-64
2023/08/02 05:22:26;;;;;;;;;;;;;;;23.14;100.00;99052.16;5074196;28;971;-65
2023/08/02 05:24:53;;;;;;;;;;;;;;;23.38;100.00;99049.66;5074243;28;873;-64
2023/08/02 05:27:21;;;;;;;;;;;;;;;23.55;100.00;99055.31;5074087;28;871;-64
2023/08/02 05:29:51;;;;;;;;;;;;;;;23.70;100.00;99051.50;5074255;28;1894;-65
2023/08/02 05:32:17;;;;;;;;;;;;;;;23.76;100.00;99057.97;5074073;28;897;-64
2023/08/02 05:34:44;;;;;;;;;;;;;;;23.88;100.00;99053.88;5055978;28;1345;-64
2023/08/02 05:37:12;;;;;;;;;;;;;;;23.98;100.00;99049.50;5074036;28;881;-64
2023/08/02 05:39:39;;;;;;;;;;;;;;;24.06;100.00;99055.38;5073958;28;888;-64
2023/08/02 05:42:06;;;;;;;;;;;;;;;24.12;100.00;99053.34;5073902;28;967;-65
2023/08/02 05:44:36;;;;;;;;;;;;;;;24.32;100.00;99054.34;5073957;28;846;-65
2023/08/02 05:47:03;;;;;;;;;;;;;;;24.39;100.00;99060.22;5073950;28;971;-65
2023/08/02 05:49:30;;;;;;;;;;;;;;;24.41;100.00;99054.84;5073552;28;1991;-66
2023/08/02 05:51:57;;;;;;;;;;;;;;;24.41;100.00;99052.00;5055723;28;855;-65
2023/08/02 05:54:24;;;;;;;;;;;;;;;24.51;100.00;99048.94;5073758;28;818;-65
2023/08/02 05:56:51;;;;;;;;;;;;;;;24.61;100.00;99053.03;5073521;28;839;-65
2023/08/02 05:59:18;;;;;;;;;;;;;;;24.60;100.00;99049.44;5073812;28;854;-65
2023/08/02 06:01:44;;;;;;;;;;;;;;;24.46;100.00;99054.03;5073536;28;893;-65
2023/08/02 06:04:11;;;;;;;;;;;;;;;24.38;100.00;99055.84;5073492;28;837;-65
2023/08/02 06:06:37;;;;;;;;;;;;;;;24.38;100.00;99053.03;5073446;28;855;-65
2023/08/02 06:09:04;;;;;;;;;;;;;;;24.69;100.00;99053.25;5072331;28;1897;-65
2023/08/02 06:11:30;;;;;;;;;;;;;;;25.11;100.00;99057.69;5073341;28;826;-66
2023/08/02 06:13:57;;;;;;;;;;;;;;;25.70;100.00;99054.81;5073231;28;873;-65
2023/08/02 06:16:23;;;;;;;;;;;;;;;26.02;100.00;99044.53;5073289;28;818;-65
2023/08/02 06:18:50;;;;;;;;;;;;;;;26.05;100.00;99051.19;5073088;28;878;-66
2023/08/02 06:21:17;;;;;;;;;;;;;;;26.13;100.00;99048.56;5073197;28;809;-65
2023/08/02 06:23:43;;;;;;;;;;;;;;;26.27;100.00;99047.41;5073024;28;861;-65
2023/08/02 06:26:10;;;;;;;;;;;;;;;27.10;100.00;99052.69;5072964;28;806;-65
2023/08/02 06:28:37;;;;;;;;;;;;;;;28.21;100.00;99047.94;5072935;28;1957;-65
2023/08/02 06:31:04;;;;;;;;;;;;;;;29.31;96.98;99053.28;5072814;28;877;-65
2023/08/02 06:33:31;;;;;;;;;;;;;;;29.92;92.46;99053.94;5072951;28;821;-65
2023/08/02 06:35:57;;;;;;;;;;;;;;;30.67;83.53;99045.78;5072741;28;861;-64
2023/08/02 06:38:24;;;;;;;;;;;;;;;31.20;74.92;99050.25;5072759;28;844;-64
2023/08/02 06:40:51;;;;;;;;;;;;;;;31.68;68.38;99046.97;5072838;28;818;-64
2023/08/02 06:43:18;;;;;;;;;;;;;;;32.51;65.23;99036.13;5072695;28;826;-65
2023/08/02 06:45:47;;;;;;;;;;;;;;;33.03;61.37;99050.09;5072603;28;1013;-65
2023/08/02 06:48:18;;;;;;;;;;;;;;;33.25;59.09;99045.66;5072475;28;1984;-65
2023/08/02 06:50:45;;;;;;;;;;;;;;;33.00;57.82;99043.44;5072490;28;853;-64
2023/08/02 06:53:11;;;;;;;;;;;;;;;32.68;58.19;99042.03;5072563;28;905;-65
2023/08/02 06:55:38;;;;;;;;;;;;;;;32.99;57.43;99046.88;5072363;28;810;-64
2023/08/02 06:58:05;;;;;;;;;;;;;;;33.58;54.50;99049.28;5072443;28;901;-64
2023/08/02 07:00:33;;;;;;;;;;;;;;;33.79;51.78;99048.22;5072351;28;847;-65
2023/08/02 07:03:00;;;;;;;;;;;;;;;33.64;50.85;99047.00;5072311;28;810;-65
2023/08/02 07:05:28;;;;;;;;;;;;;;;33.80;50.11;99047.66;5072284;28;866;-64
2023/08/02 07:07:56;;;;;;;;;;;;;;;33.93;49.43;99053.09;5072379;28;1987;-64
2023/08/02 07:10:22;;;;;;;;;;;;;;;34.22;48.08;99055.56;5072245;28;846;-64
2023/08/02 07:12:50;;;;;;;;;;;;;;;34.21;47.29;99053.28;5072245;28;818;-66
2023/08/02 07:15:17;;;;;;;;;;;;;;;33.32;49.12;99050.59;5072198;28;779;-64
2023/08/02 07:17:44;;;;;;;;;;;;;;;32.54;50.47;99041.50;5072052;28;877;-64
2023/08/02 07:20:11;;;;;;;;;;;;;;;32.53;50.56;99036.34;5071919;28;898;-65
2023/08/02 07:22:41;;;;;;;;;;;;;;;33.02;50.33;99040.75;5072011;28;902;-64
2023/08/02 07:25:10;;;;;;;;;;;;;;;33.62;48.65;99038.22;5072013;28;881;-65
2023/08/02 07:27:37;;;;;;;;;;;;;;;33.90;47.63;99047.75;5072186;28;885;-63
2023/08/02 07:30:04;;;;;;;;;;;;;;;34.61;47.08;99037.97;5072077;28;1965;-65
2023/08/02 07:32:33;;;;;;;;;;;;;;;35.29;44.46;99038.53;5072148;28;854;-65
2023/08/02 07:35:01;;;;;;;;;;;;;;;35.23;44.06;99033.09;5071900;28;859;-65
2023/08/02 07:37:28;;;;;;;;;;;;;;;34.98;44.66;99033.19;5071962;28;829;-65
2023/08/02 07:39:55;;;;;;;;;;;;;;;34.97;44.09;99035.31;5071767;28;865;-69
2023/08/02 07:42:22;;;;;;;;;;;;;;;34.65;44.22;99039.09;5071900;28;795;-65
2023/08/02 07:45:05;;;;;;;;;;;;;;;34.69;44.40;99042.31;5072020;28;877;-64
2023/08/02 07:47:33;;;;;;;;;;;;;;;34.28;45.62;99038.13;5053881;28;1216;-65
2023/08/02 07:49:59;;;;;;;;;;;;;;;34.42;45.48;99044.28;5072053;28;1906;-66
2023/08/02 07:52:26;;;;;;;;;;;;;;;33.68;46.56;99038.00;5071821;28;1220;-66
2023/08/02 07:54:54;;;;;;;;;;;;;;;32.98;48.08;99026.09;5071839;28;1141;-68
2023/08/02 07:57:22;;;;;;;;;;;;;;;33.03;48.61;99030.84;5071847;28;1173;-65
2023/08/02 07:59:49;;;;;;;;;;;;;;;33.63;47.53;99021.78;5071779;28;1016;-66
2023/08/02 08:02:16;;;;;;;;;;;;;;;33.98;45.99;99022.66;5071820;28;897;-66
2023/08/02 08:04:42;;;;;;;;;;;;;;;33.73;47.42;99014.81;5071826;28;880;-66
2023/08/02 08:07:09;;;;;;;;;;;;;;;33.57;46.97;99013.41;5071810;28;862;-65
2023/08/02 08:09:35;;;;;;;;;;;;;;;33.41;47.16;99007.00;5071886;28;1973;-67
2023/08/02 08:12:03;;;;;;;;;;;;;;;34.01;45.73;99007.16;5071564;28;1290;-64
2023/08/02 08:14:31;;;;;;;;;;;;;;;34.02;45.63;98997.22;5071863;28;905;-67
2023/08/02 08:16:58;;;;;;;;;;;;;;;33.43;46.73;99010.03;5071642;28;937;-64
2023/08/02 08:19:25;;;;;;;;;;;;;;;33.72;46.25;99006.84;5071736;28;885;-66
2023/08/02 08:21:53;;;;;;;;;;;;;;;33.97;45.42;99001.09;5071605;28;798;-65
2023/08/02 08:24:20;;;;;;;;;;;;;;;33.40;46.51;99005.50;5071610;28;850;-65
2023/08/02 08:26:46;;;;;;;;;;;;;;;32.99;47.59;99006.81;5071428;28;862;-66
2023/08/02 08:29:13;;;;;;;;;;;;;;;32.53;48.49;99002.78;5071466;28;1886;-67
2023/08/02 08:31:40;;;;;;;;;;;;;;;32.15;49.09;99002.81;5072551;28;810;-66
2023/08/02 08:34:07;;;;;;;;;;;;;;;32.08;50.04;98995.78;5075240;28;887;-66
2023/08/02 08:36:32;;;;;;;;;;;;;;;32.08;49.88;98990.06;5075358;28;827;-65
2023/08/02 08:38:59;;;;;;;;;;;;;;;32.06;50.09;99000.53;5057477;28;1022;-65
2023/08/02 08:41:26;;;;;;;;;;;;;;;31.90;50.84;98988.31;5075419;28;824;-66
2023/08/02 08:43:52;;;;;;;;;;;;;;;31.71;51.17;98983.75;5057052;28;1294;-65
2023/08/02 08:46:19;;;;;;;;;;;;;;;31.48;51.70;98992.31;5074919;28;1017;-66
2023/08/02 08:48:46;;;;;;;;;;;;;;;31.34;52.28;98985.97;5074601;28;1985;-66
2023/08/02 08:51:13;;;;;;;;;;;;;;;31.17;52.60;98982.13;5074930;28;877;-67
2023/08/02 08:53:43;;;;;;;;;;;;;;;30.99;53.25;98987.56;5074714;28;841;-66
2023/08/02 08:56:10;;;;;;;;;;;;;;;30.93;53.74;98981.28;5075195;28;810;-67
2023/08/02 08:58:38;;;;;;;;;;;;;;;30.96;53.90;98980.16;5074851;28;822;-66
2023/08/02 09:01:05;;;;;;;;;;;;;;;31.64;53.02;98980.88;5074745;28;846;-66
2023/08/02 09:03:35;;;;;;;;;;;;;;;32.92;50.20;98986.25;5074651;28;830;-66
2023/08/02 09:06:03;;;;;;;;;;;;;;;33.15;48.34;98991.13;5074532;28;835;-66
2023/08/02 09:08:42;;;;;;;;;;;;;;;32.75;49.09;98991.84;5074885;28;1889;-66
2023/08/02 09:11:08;;;;;;;;;;;;;;;32.49;49.90;98999.50;5074421;28;806;-66
2023/08/02 09:13:35;;;;;;;;;;;;;;;32.48;50.42;99005.84;5074543;28;977;-66
2023/08/02 09:47:09;;;;;;;;;;;;;;;35.10;44.06;98979.63;5860703;22;1759;-56
2023/08/02 09:49:36;;;;;;;;;;;;;;;34.86;44.25;98986.25;5052306;28;1886;-55
2023/08/02 09:52:01;;;;;;;;;;;;;;;34.70;45.08;98982.81;5053836;28;814;-55
2023/08/02 09:54:29;;;;;;;;;;;;;;;34.57;45.45;98972.44;5053770;28;957;-57
2023/08/02 09:56:56;;;;;;;;;;;;;;;34.33;45.61;98977.66;5053592;28;897;-57
2023/08/02 09:59:26;;;;;;;;;;;;;;;34.26;45.29;98966.25;5053688;28;895;-57
2023/08/02 10:01:54;;;;;;;;;;;;;;;34.71;45.54;98969.97;5053557;28;814;-57
2023/08/02 10:04:23;;;;;;;;;;;;;;;34.95;44.34;98957.63;5053568;28;881;-57
2023/08/02 10:06:53;;;;;;;;;;;;;;;34.95;43.50;98956.84;5053510;28;802;-56
2023/08/02 10:09:27;;;;;;;;;;;;;;;35.00;43.12;98947.22;5053309;28;1882;-56
2023/08/02 10:11:56;;;;;;;;;;;;;;;35.30;42.92;98954.66;5053506;28;921;-56
2023/08/02 10:14:23;;;;;;;;;;;;;;;35.31;43.16;98964.03;5053388;28;822;-57
2023/08/02 10:16:51;;;;;;;;;;;;;;;35.46;41.45;98960.16;5053281;28;818;-56
2023/08/02 10:19:18;;;;;;;;;;;;;;;35.42;41.17;98956.97;5053128;28;854;-57
2023/08/02 10:21:46;;;;;;;;;;;;;;;35.68;40.02;98959.09;5053263;28;823;-56
2023/08/02 10:24:13;;;;;;;;;;;;;;;36.11;39.15;98958.75;5053115;28;873;-56
2023/08/02 10:26:41;;;;;;;;;;;;;;;36.27;38.60;98962.88;5053092;28;857;-57
2023/08/02 10:29:08;;;;;;;;;;;;;;;36.07;38.58;98959.19;5053250;28;1890;-57
2023/08/02 10:31:35;;;;;;;;;;;;;;;36.07;38.27;98952.69;5053033;28;845;-57
2023/08/02 10:34:22;;;;;;;;;;;;;;;36.19;38.40;98947.88;5053004;28;803;-57
2023/08/02 10:36:55;;;;;;;;;;;;;;;35.86;38.56;98944.63;5052812;28;1398;-57
2023/08/02 10:39:42;;;;;;;;;;;;;;;36.11;38.62;98938.63;5052914;28;904;-57
2023/08/02 10:42:08;;;;;;;;;;;;;;;36.66;38.13;98933.34;5045425;28;1120;-57
2023/08/02 10:44:35;;;;;;;;;;;;;;;37.12;36.66;98933.13;5052760;28;814;-57
2023/08/02 10:47:36;;;;;;;;;;;;;;;37.32;36.11;98935.94;5052974;28;895;-56
2023/08/02 10:50:03;;;;;;;;;;;;;;;37.48;35.67;98924.84;5010798;28;1911;-57
2023/08/02 10:52:32;;;;;;;;;;;;;;;37.25;35.29;98931.13;5010838;28;1340;-57
2023/08/02 10:55:12;;;;;;;;;;;;;;;36.81;35.42;98932.28;5010368;28;896;-57
2023/08/02 10:57:39;;;;;;;;;;;;;;;36.48;36.01;98929.88;5010937;28;1239;-57
2023/08/02 11:00:17;;;;;;;;;;;;;;;37.17;35.51;98929.19;5010844;28;1281;-57
2023/08/02 11:02:47;;;;;;;;;;;;;;;37.30;34.56;98922.19;5010697;28;799;-56
2023/08/02 11:05:16;;;;;;;;;;;;;;;37.09;35.44;98919.97;5010622;28;919;-57
2023/08/02 11:07:56;;;;;;;;;;;;;;;37.22;34.97;98917.97;5010596;28;886;-57
2023/08/02 11:10:23;;;;;;;;;;;;;;;37.26;33.24;98918.25;5010507;28;1968;-57
2023/08/02 11:12:53;;;;;;;;;;;;;;;37.64;32.99;98911.59;5010418;28;926;-57
2023/08/02 11:15:20;;;;;;;;;;;;;;;38.25;33.30;98917.13;5010455;28;865;-55
2023/08/02 11:17:48;;;;;;;;;;;;;;;38.09;32.83;98919.66;5010679;28;919;-54
2023/08/02 11:20:15;;;;;;;;;;;;;;;38.08;33.02;98912.38;5010404;28;914;-54
2023/08/02 11:22:41;;;;;;;;;;;;;;;38.51;31.51;98909.47;5010470;28;852;-55
2023/08/02 11:25:09;;;;;;;;;;;;;;;38.77;31.26;98913.31;5050930;28;1025;-54
2023/08/02 11:27:35;;;;;;;;;;;;;;;39.29;31.09;98908.69;5051928;28;858;-55
2023/08/02 11:30:07;;;;;;;;;;;;;;;39.68;30.00;98908.19;5051813;28;1960;-54
2023/08/02 11:32:34;;;;;;;;;;;;;;;39.42;28.31;98907.31;5051912;28;925;-55
2023/08/02 11:35:01;;;;;;;;;;;;;;;39.07;28.56;98905.13;5051767;28;957;-54
2023/08/02 11:37:27;;;;;;;;;;;;;;;39.11;28.65;98911.16;5052010;28;844;-55
2023/08/02 11:39:55;;;;;;;;;;;;;;;39.15;28.27;98902.75;5051837;28;818;-56
2023/08/02 11:42:23;;;;;;;;;;;;;;;39.30;28.02;98902.25;5051874;28;865;-55
2023/08/02 11:44:50;;;;;;;;;;;;;;;39.72;27.51;98906.28;5051721;28;834;-54
2023/08/02 11:47:16;;;;;;;;;;;;;;;39.94;25.81;98883.75;5051706;28;1223;-55
2023/08/02 11:49:52;;;;;;;;;;;;;;;39.98;25.47;98894.81;5050914;28;1981;-54
2023/08/02 11:52:29;;;;;;;;;;;;;;;40.07;25.41;98896.06;5050976;28;806;-55
2023/08/02 11:54:56;;;;;;;;;;;;;;;40.17;24.35;98890.88;5050958;28;877;-54
2023/08/02 11:57:23;;;;;;;;;;;;;;;40.41;23.67;98888.66;5050948;28;810;-55
2023/08/02 11:59:52;;;;;;;;;;;;;;;40.56;24.52;98870.69;5050914;28;897;-55
2023/08/02 12:02:26;;;;;;;;;;;;;;;41.20;23.13;98871.34;5050758;28;856;-55
2023/08/02 12:04:53;;;;;;;;;;;;;;;41.28;22.84;98871.03;5051049;28;861;-55
2023/08/02 12:07:30;;;;;;;;;;;;;;;41.47;23.00;98872.75;5052756;28;840;-55
2023/08/02 12:09:56;;;;;;;;;;;;;;;41.55;22.67;98879.72;5054196;28;1948;-54
2023/08/02 12:12:32;;;;;;;;;;;;;;;41.82;22.21;98881.13;5054428;28;826;-54
2023/08/02 12:15:08;;;;;;;;;;;;;;;42.00;20.95;98876.28;5052885;28;1476;-54
2023/08/02 12:17:33;;;;;;;;;;;;;;;42.18;20.59;98875.69;5054242;28;795;-55
2023/08/02 12:20:00;;;;;;;;;;;;;;;42.44;19.66;98867.56;5054498;28;1080;-56
2023/08/02 12:22:27;;;;;;;;;;;;;;;42.88;19.75;98879.84;5054392;28;866;-56
2023/08/02 12:25:04;;;;;;;;;;;;;;;42.92;20.18;98873.50;5054129;28;810;-56
2023/08/02 12:27:31;;;;;;;;;;;;;;;43.14;19.37;98867.94;5053975;28;910;-55
2023/08/02 12:30:09;;;;;;;;;;;;;;;42.91;19.38;98866.16;5054092;28;1889;-54
2023/08/02 12:32:36;;;;;;;;;;;;;;;43.10;18.98;98862.69;5053925;28;909;-55
2023/08/02 12:35:06;;;;;;;;;;;;;;;43.16;19.02;98865.13;5053973;28;970;-54
2023/08/02 12:37:33;;;;;;;;;;;;;;;43.17;19.62;98864.50;5053821;28;841;-54
2023/08/02 12:40:00;;;;;;;;;;;;;;;43.89;19.17;98858.94;5053897;28;893;-54
2023/08/02 12:42:27;;;;;;;;;;;;;;;44.30;19.03;98863.59;5053870;28;825;-55
2023/08/02 12:44:53;;;;;;;;;;;;;;;43.63;19.18;98856.38;5053911;28;807;-55
2023/08/02 12:49:46;;;;;;;;;;;;;;;43.32;19.07;98856.41;5150947;27;1368;-55
2023/08/02 12:52:13;;;;;;;;;;;;;;;42.91;19.20;98855.31;5150961;27;824;-55
2023/08/02 12:54:38;;;;;;;;;;;;;;;42.67;19.71;98860.69;5151022;27;841;-56
2023/08/02 12:57:05;;;;;;;;;;;;;;;41.86;20.76;98858.13;5150837;27;845;-55
2023/08/02 12:59:32;;;;;;;;;;;;;;;40.31;22.30;98862.00;5150700;27;924;-55
2023/08/02 13:01:59;;;;;;;;;;;;;;;39.67;22.62;98855.38;5132138;27;1384;-55
2023/08/02 13:04:25;;;;;;;;;;;;;;;39.33;23.18;98851.88;5150736;27;806;-55
2023/08/02 13:06:52;;;;;;;;;;;;;;;39.98;22.77;98854.31;5150662;27;861;-55
2023/08/02 13:09:19;;;;;;;;;;;;;;;41.70;21.66;98846.44;5150492;27;1905;-55
2023/08/02 13:11:45;;;;;;;;;;;;;;;42.17;20.91;98851.72;5150688;27;900;-55
2023/08/02 13:14:12;;;;;;;;;;;;;;;41.81;21.23;98854.25;5150399;27;833;-56
2023/08/02 13:16:38;;;;;;;;;;;;;;;40.29;21.71;98856.88;5150493;27;809;-55
2023/08/02 13:19:05;;;;;;;;;;;;;;;39.50;22.80;98850.75;5150474;27;917;-55
2023/08/02 13:21:31;;;;;;;;;;;;;;;38.68;23.70;98862.97;5150612;27;869;-55
2023/08/02 13:23:57;;;;;;;;;;;;;;;37.63;24.20;98863.94;5150547;27;860;-55
2023/08/02 13:26:24;;;;;;;;;;;;;;;36.56;25.77;98864.28;5150456;27;1171;-55
2023/08/02 13:28:51;;;;;;;;;;;;;;;35.81;26.46;98863.06;5150921;27;1950;-55
2023/08/02 13:31:17;;;;;;;;;;;;;;;35.60;27.60;98865.72;5131603;27;1193;-55
2023/08/02 13:33:46;;;;;;;;;;;;;;;35.55;27.72;98864.66;5150200;27;852;-55
2023/08/02 13:36:12;;;;;;;;;;;;;;;35.57;27.70;98871.31;5150508;27;809;-55
2023/08/02 13:38:38;;;;;;;;;;;;;;;35.66;27.93;98874.84;5150124;27;1239;-54
2023/08/02 13:41:05;;;;;;;;;;;;;;;35.64;28.25;98871.81;5150283;27;899;-55